sensor_id;sensor_type;location;lat;lon;timestamp;pressure;altitude;pressure_sealevel;temperature;humidity
31911;BME280;18457;52.432;16.914;2023-04-28T00:00:25;100953.65;;;5.18;75.94
31911;BME280;18457;52.432;16.914;2023-04-28T00:03:17;100955.87;;;5.01;76.26
31911;BME280;18457;52.432;16.914;2023-04-28T00:05:49;100952.20;;;4.91;76.57
31911;BME280;18457;52.432;16.914;2023-04-28T00:08:23;100955.45;;;4.95;76.75
31911;BME280;18457;52.432;16.914;2023-04-28T00:10:56;100959.34;;;4.87;76.67
31911;BME280;18457;52.432;16.914;2023-04-28T00:13:28;100955.21;;;4.86;76.89
31911;BME280;18457;52.432;16.914;2023-04-28T00:15:59;100954.81;;;4.83;77.13
31911;BME280;18457;52.432;16.914;2023-04-28T00:18:31;100953.66;;;4.95;76.61
31911;BME280;18457;52.432;16.914;2023-04-28T00:21:03;100959.27;;;5.03;76.34
31911;BME280;18457;52.432;16.914;2023-04-28T00:23:35;100955.09;;;4.94;76.61
31911;BME280;18457;52.432;16.914;2023-04-28T00:26:07;100960.66;;;4.74;77.11
31911;BME280;18457;52.432;16.914;2023-04-28T00:28:39;100960.27;;;4.70;77.63
31911;BME280;18457;52.432;16.914;2023-04-28T00:31:15;100963.53;;;4.74;77.48
31911;BME280;18457;52.432;16.914;2023-04-28T00:33:47;100963.08;;;4.64;78.37
31911;BME280;18457;52.432;16.914;2023-04-28T00:36:18;100957.77;;;4.70;77.85
31911;BME280;18457;52.432;16.914;2023-04-28T00:38:50;100956.90;;;4.74;77.32
31911;BME280;18457;52.432;16.914;2023-04-28T00:41:23;100960.38;;;4.63;78.25
31911;BME280;18457;52.432;16.914;2023-04-28T00:43:55;100960.52;;;4.57;78.77
31911;BME280;18457;52.432;16.914;2023-04-28T00:46:29;100960.16;;;4.57;78.74
31911;BME280;18457;52.432;16.914;2023-04-28T00:49:01;100960.64;;;4.72;77.59
31911;BME280;18457;52.432;16.914;2023-04-28T00:51:35;100957.98;;;4.75;77.61
31911;BME280;18457;52.432;16.914;2023-04-28T00:54:07;100957.46;;;4.77;77.25
31911;BME280;18457;52.432;16.914;2023-04-28T00:56:40;100957.41;;;4.70;78.19
31911;BME280;18457;52.432;16.914;2023-04-28T00:59:12;100953.74;;;4.59;78.96
31911;BME280;18457;52.432;16.914;2023-04-28T01:01:44;100947.34;;;4.44;79.51
31911;BME280;18457;52.432;16.914;2023-04-28T01:04:18;100943.54;;;4.39;80.35
31911;BME280;18457;52.432;16.914;2023-04-28T01:06:53;100944.44;;;4.40;81.00
31911;BME280;18457;52.432;16.914;2023-04-28T01:09:26;100943.52;;;4.57;80.34
31911;BME280;18457;52.432;16.914;2023-04-28T01:11:58;100946.81;;;4.66;79.14
31911;BME280;18457;52.432;16.914;2023-04-28T01:14:44;100945.77;;;4.71;78.35
31911;BME280;18457;52.432;16.914;2023-04-28T01:17:16;100946.57;;;4.58;79.00
31911;BME280;18457;52.432;16.914;2023-04-28T01:19:49;100943.27;;;4.49;79.80
31911;BME280;18457;52.432;16.914;2023-04-28T01:22:22;100941.20;;;4.37;80.29
31911;BME280;18457;52.432;16.914;2023-04-28T01:24:54;100940.10;;;4.37;80.83
31911;BME280;18457;52.432;16.914;2023-04-28T01:27:26;100945.06;;;4.50;80.50
31911;BME280;18457;52.432;16.914;2023-04-28T01:29:58;100946.05;;;4.60;79.39
31911;BME280;18457;52.432;16.914;2023-04-28T01:32:30;100950.71;;;4.62;79.09
31911;BME280;18457;52.432;16.914;2023-04-28T01:35:02;100947.70;;;4.65;79.03
31911;BME280;18457;52.432;16.914;2023-04-28T01:37:37;100947.77;;;4.53;79.43
31911;BME280;18457;52.432;16.914;2023-04-28T01:40:11;100946.23;;;4.40;80.30
31911;BME280;18457;52.432;16.914;2023-04-28T01:42:43;100948.42;;;4.47;79.95
31911;BME280;18457;52.432;16.914;2023-04-28T01:45:16;100944.17;;;4.49;79.63
31911;BME280;18457;52.432;16.914;2023-04-28T01:47:47;100942.83;;;4.41;80.15
31911;BME280;18457;52.432;16.914;2023-04-28T01:50:20;100944.04;;;4.35;80.45
31911;BME280;18457;52.432;16.914;2023-04-28T01:52:52;100939.65;;;4.26;81.04
31911;BME280;18457;52.432;16.914;2023-04-28T01:55:24;100943.52;;;4.20;81.60
31911;BME280;18457;52.432;16.914;2023-04-28T01:57:56;100937.85;;;4.25;81.38
31911;BME280;18457;52.432;16.914;2023-04-28T02:00:29;100943.35;;;4.38;80.84
31911;BME280;18457;52.432;16.914;2023-04-28T02:03:01;100938.40;;;4.45;79.97
31911;BME280;18457;52.432;16.914;2023-04-28T02:05:33;100938.20;;;4.44;79.89
31911;BME280;18457;52.432;16.914;2023-04-28T02:08:05;100935.70;;;4.44;79.89
31911;BME280;18457;52.432;16.914;2023-04-28T02:10:37;100937.86;;;4.44;80.13
31911;BME280;18457;52.432;16.914;2023-04-28T02:13:09;100938.59;;;4.47;79.58
31911;BME280;18457;52.432;16.914;2023-04-28T02:15:41;100940.41;;;4.49;79.75
31911;BME280;18457;52.432;16.914;2023-04-28T02:18:14;100939.34;;;4.50;79.25
31911;BME280;18457;52.432;16.914;2023-04-28T02:20:46;100938.58;;;4.46;79.12
31911;BME280;18457;52.432;16.914;2023-04-28T02:23:17;100936.44;;;4.28;80.65
31911;BME280;18457;52.432;16.914;2023-04-28T02:25:49;100936.30;;;4.14;81.82
31911;BME280;18457;52.432;16.914;2023-04-28T02:28:21;100935.42;;;4.15;81.94
31911;BME280;18457;52.432;16.914;2023-04-28T02:30:53;100931.87;;;4.16;82.22
31911;BME280;18457;52.432;16.914;2023-04-28T02:33:26;100927.45;;;4.22;81.76
31911;BME280;18457;52.432;16.914;2023-04-28T02:36:00;100931.17;;;4.36;81.15
31911;BME280;18457;52.432;16.914;2023-04-28T02:38:32;100934.09;;;4.44;80.80
31911;BME280;18457;52.432;16.914;2023-04-28T02:41:05;100933.70;;;4.41;80.51
31911;BME280;18457;52.432;16.914;2023-04-28T02:43:39;100936.77;;;4.42;80.40
31911;BME280;18457;52.432;16.914;2023-04-28T02:46:11;100935.33;;;4.40;79.94
31911;BME280;18457;52.432;16.914;2023-04-28T02:48:44;100935.04;;;4.31;80.48
31911;BME280;18457;52.432;16.914;2023-04-28T02:51:16;100937.19;;;4.30;80.57
31911;BME280;18457;52.432;16.914;2023-04-28T02:53:48;100934.65;;;4.26;80.95
31911;BME280;18457;52.432;16.914;2023-04-28T02:56:20;100934.48;;;4.29;80.57
31911;BME280;18457;52.432;16.914;2023-04-28T02:58:52;100932.66;;;4.25;80.45
31911;BME280;18457;52.432;16.914;2023-04-28T03:01:23;100935.19;;;4.28;80.14
31911;BME280;18457;52.432;16.914;2023-04-28T03:03:55;100940.02;;;4.27;80.27
31911;BME280;18457;52.432;16.914;2023-04-28T03:06:27;100940.21;;;4.28;80.26
31911;BME280;18457;52.432;16.914;2023-04-28T03:08:59;100940.20;;;4.27;80.44
31911;BME280;18457;52.432;16.914;2023-04-28T03:11:31;100933.43;;;4.30;80.20
31911;BME280;18457;52.432;16.914;2023-04-28T03:14:03;100934.65;;;4.27;80.58
31911;BME280;18457;52.432;16.914;2023-04-28T03:16:35;100932.84;;;4.24;80.85
31911;BME280;18457;52.432;16.914;2023-04-28T03:19:07;100930.65;;;4.21;80.58
31911;BME280;18457;52.432;16.914;2023-04-28T03:21:39;100930.73;;;4.12;81.22
31911;BME280;18457;52.432;16.914;2023-04-28T03:24:11;100929.41;;;4.21;80.63
31911;BME280;18457;52.432;16.914;2023-04-28T03:26:43;100931.40;;;4.24;80.45
31911;BME280;18457;52.432;16.914;2023-04-28T03:29:15;100930.94;;;4.13;80.69
31911;BME280;18457;52.432;16.914;2023-04-28T03:31:47;100926.80;;;3.94;81.75
31911;BME280;18457;52.432;16.914;2023-04-28T03:34:19;100928.15;;;3.88;82.27
31911;BME280;18457;52.432;16.914;2023-04-28T03:36:51;100931.58;;;3.91;82.48
31911;BME280;18457;52.432;16.914;2023-04-28T03:39:28;100935.98;;;4.00;82.18
31911;BME280;18457;52.432;16.914;2023-04-28T03:42:00;100932.61;;;4.03;81.90
31911;BME280;18457;52.432;16.914;2023-04-28T03:45:05;100933.36;;;4.06;81.67
31911;BME280;18457;52.432;16.914;2023-04-28T03:47:38;100938.23;;;4.09;81.09
31911;BME280;18457;52.432;16.914;2023-04-28T03:50:10;100937.90;;;3.96;81.34
31911;BME280;18457;52.432;16.914;2023-04-28T03:52:42;100934.98;;;3.75;81.82
31911;BME280;18457;52.432;16.914;2023-04-28T03:55:14;100933.66;;;3.69;83.02
31911;BME280;18457;52.432;16.914;2023-04-28T03:57:47;100933.02;;;3.75;83.12
31911;BME280;18457;52.432;16.914;2023-04-28T04:00:20;100932.86;;;3.77;83.69
31911;BME280;18457;52.432;16.914;2023-04-28T04:02:53;100931.58;;;3.90;83.68
31911;BME280;18457;52.432;16.914;2023-04-28T04:05:26;100932.35;;;3.96;83.52
31911;BME280;18457;52.432;16.914;2023-04-28T04:07:59;100932.56;;;3.99;83.42
31911;BME280;18457;52.432;16.914;2023-04-28T04:10:32;100925.55;;;3.95;83.59
31911;BME280;18457;52.432;16.914;2023-04-28T04:13:04;100930.55;;;4.10;82.70
31911;BME280;18457;52.432;16.914;2023-04-28T04:15:36;100926.84;;;4.16;82.61
31911;BME280;18457;52.432;16.914;2023-04-28T04:18:08;100923.82;;;4.17;82.64
31911;BME280;18457;52.432;16.914;2023-04-28T04:20:58;100928.27;;;4.15;82.84
31911;BME280;18457;52.432;16.914;2023-04-28T04:23:30;100926.66;;;4.14;83.08
31911;BME280;18457;52.432;16.914;2023-04-28T04:26:02;100930.82;;;4.20;83.08
31911;BME280;18457;52.432;16.914;2023-04-28T04:28:34;100930.78;;;4.34;82.19
31911;BME280;18457;52.432;16.914;2023-04-28T04:31:07;100931.05;;;4.43;81.57
31911;BME280;18457;52.432;16.914;2023-04-28T04:33:39;100930.48;;;4.41;82.57
31911;BME280;18457;52.432;16.914;2023-04-28T04:36:12;100930.80;;;4.35;83.31
31911;BME280;18457;52.432;16.914;2023-04-28T04:38:44;100934.84;;;4.48;82.66
31911;BME280;18457;52.432;16.914;2023-04-28T04:41:19;100931.54;;;4.58;82.18
31911;BME280;18457;52.432;16.914;2023-04-28T04:43:52;100931.06;;;4.65;81.56
31911;BME280;18457;52.432;16.914;2023-04-28T04:46:24;100930.02;;;4.68;81.57
31911;BME280;18457;52.432;16.914;2023-04-28T04:48:56;100928.73;;;4.63;82.35
31911;BME280;18457;52.432;16.914;2023-04-28T04:51:28;100928.88;;;4.60;82.99
31911;BME280;18457;52.432;16.914;2023-04-28T04:54:00;100928.51;;;4.59;83.12
31911;BME280;18457;52.432;16.914;2023-04-28T04:56:32;100930.94;;;4.73;82.39
31911;BME280;18457;52.432;16.914;2023-04-28T04:59:04;100934.60;;;4.84;80.69
31911;BME280;18457;52.432;16.914;2023-04-28T05:01:50;100934.42;;;4.82;81.36
31911;BME280;18457;52.432;16.914;2023-04-28T05:04:22;100932.48;;;4.89;81.04
31911;BME280;18457;52.432;16.914;2023-04-28T05:06:55;100935.27;;;4.99;80.39
31911;BME280;18457;52.432;16.914;2023-04-28T05:09:27;100931.74;;;5.07;79.94
31911;BME280;18457;52.432;16.914;2023-04-28T05:11:59;100938.57;;;5.11;79.74
31911;BME280;18457;52.432;16.914;2023-04-28T05:14:30;100938.98;;;5.22;78.90
31911;BME280;18457;52.432;16.914;2023-04-28T05:17:02;100936.88;;;5.27;79.14
31911;BME280;18457;52.432;16.914;2023-04-28T05:19:38;100936.20;;;5.33;79.03
31911;BME280;18457;52.432;16.914;2023-04-28T05:22:10;100933.74;;;5.42;78.85
31911;BME280;18457;52.432;16.914;2023-04-28T05:24:42;100929.49;;;5.51;77.85
31911;BME280;18457;52.432;16.914;2023-04-28T05:27:14;100929.89;;;5.59;77.21
31911;BME280;18457;52.432;16.914;2023-04-28T05:29:46;100932.61;;;5.65;77.01
31911;BME280;18457;52.432;16.914;2023-04-28T05:32:18;100930.11;;;5.75;77.08
31911;BME280;18457;52.432;16.914;2023-04-28T05:34:51;100927.98;;;5.80;76.81
31911;BME280;18457;52.432;16.914;2023-04-28T05:37:23;100932.30;;;5.82;76.53
31911;BME280;18457;52.432;16.914;2023-04-28T05:39:56;100927.87;;;5.87;76.07
31911;BME280;18457;52.432;16.914;2023-04-28T05:42:28;100932.57;;;5.99;75.64
31911;BME280;18457;52.432;16.914;2023-04-28T05:45:00;100932.77;;;6.10;74.79
31911;BME280;18457;52.432;16.914;2023-04-28T05:47:33;100932.45;;;6.21;73.76
31911;BME280;18457;52.432;16.914;2023-04-28T05:50:06;100922.23;;;6.25;72.48
31911;BME280;18457;52.432;16.914;2023-04-28T05:52:38;100928.72;;;6.42;71.90
31911;BME280;18457;52.432;16.914;2023-04-28T05:55:10;100925.85;;;6.54;71.27
31911;BME280;18457;52.432;16.914;2023-04-28T05:57:42;100922.45;;;6.64;70.85
31911;BME280;18457;52.432;16.914;2023-04-28T06:00:23;100922.44;;;6.76;70.12
31911;BME280;18457;52.432;16.914;2023-04-28T06:02:55;100922.63;;;6.86;69.66
31911;BME280;18457;52.432;16.914;2023-04-28T06:05:27;100921.00;;;6.93;70.02
31911;BME280;18457;52.432;16.914;2023-04-28T06:08:00;100920.27;;;7.01;70.04
31911;BME280;18457;52.432;16.914;2023-04-28T06:10:34;100919.91;;;7.09;70.06
31911;BME280;18457;52.432;16.914;2023-04-28T06:13:06;100919.35;;;7.18;69.66
31911;BME280;18457;52.432;16.914;2023-04-28T06:15:38;100920.94;;;7.26;68.72
31911;BME280;18457;52.432;16.914;2023-04-28T06:18:10;100916.42;;;7.32;68.33
31911;BME280;18457;52.432;16.914;2023-04-28T06:20:42;100918.92;;;7.41;67.13
31911;BME280;18457;52.432;16.914;2023-04-28T06:23:14;100918.34;;;7.50;66.52
31911;BME280;18457;52.432;16.914;2023-04-28T06:25:49;100915.27;;;7.59;66.04
31911;BME280;18457;52.432;16.914;2023-04-28T06:28:20;100916.31;;;7.67;65.98
31911;BME280;18457;52.432;16.914;2023-04-28T06:30:52;100921.85;;;7.75;65.91
31911;BME280;18457;52.432;16.914;2023-04-28T06:33:24;100912.83;;;7.83;65.75
31911;BME280;18457;52.432;16.914;2023-04-28T06:35:56;100912.27;;;7.89;65.56
31911;BME280;18457;52.432;16.914;2023-04-28T06:38:28;100906.10;;;7.97;64.05
31911;BME280;18457;52.432;16.914;2023-04-28T06:41:00;100905.50;;;8.06;63.42
31911;BME280;18457;52.432;16.914;2023-04-28T06:43:33;100902.59;;;8.13;62.73
31911;BME280;18457;52.432;16.914;2023-04-28T06:46:10;100899.31;;;8.19;61.70
31911;BME280;18457;52.432;16.914;2023-04-28T06:48:42;100899.82;;;8.28;61.31
31911;BME280;18457;52.432;16.914;2023-04-28T06:51:14;100901.91;;;8.38;60.64
31911;BME280;18457;52.432;16.914;2023-04-28T06:53:46;100901.32;;;8.45;60.56
31911;BME280;18457;52.432;16.914;2023-04-28T06:56:21;100898.73;;;8.55;60.38
31911;BME280;18457;52.432;16.914;2023-04-28T06:58:53;100898.99;;;8.66;58.46
31911;BME280;18457;52.432;16.914;2023-04-28T07:01:24;100897.84;;;8.74;57.56
31911;BME280;18457;52.432;16.914;2023-04-28T07:03:56;100905.89;;;8.82;57.28
31911;BME280;18457;52.432;16.914;2023-04-28T07:06:28;100899.17;;;8.85;56.93
31911;BME280;18457;52.432;16.914;2023-04-28T07:09:01;100899.15;;;8.89;56.28
31911;BME280;18457;52.432;16.914;2023-04-28T07:11:32;100900.92;;;8.93;56.00
31911;BME280;18457;52.432;16.914;2023-04-28T07:14:04;100894.39;;;8.97;55.61
31911;BME280;18457;52.432;16.914;2023-04-28T07:16:37;100893.59;;;9.04;55.50
31911;BME280;18457;52.432;16.914;2023-04-28T07:19:09;100893.34;;;9.12;55.79
31911;BME280;18457;52.432;16.914;2023-04-28T07:21:41;100888.98;;;9.15;55.53
31911;BME280;18457;52.432;16.914;2023-04-28T07:24:13;100886.56;;;9.22;56.07
31911;BME280;18457;52.432;16.914;2023-04-28T07:26:46;100883.58;;;9.30;55.61
31911;BME280;18457;52.432;16.914;2023-04-28T07:29:18;100877.75;;;9.36;55.12
31911;BME280;18457;52.432;16.914;2023-04-28T07:31:50;100877.46;;;9.43;54.26
31911;BME280;18457;52.432;16.914;2023-04-28T07:34:22;100872.21;;;9.47;53.00
31911;BME280;18457;52.432;16.914;2023-04-28T07:36:54;100864.73;;;9.54;52.88
31911;BME280;18457;52.432;16.914;2023-04-28T07:39:26;100863.00;;;9.62;54.06
31911;BME280;18457;52.432;16.914;2023-04-28T07:41:58;100858.36;;;9.72;54.29
31911;BME280;18457;52.432;16.914;2023-04-28T07:44:30;100855.16;;;9.81;54.21
31911;BME280;18457;52.432;16.914;2023-04-28T07:47:03;100852.04;;;9.85;53.36
31911;BME280;18457;52.432;16.914;2023-04-28T07:49:35;100850.77;;;9.87;53.62
31911;BME280;18457;52.432;16.914;2023-04-28T07:52:10;100849.40;;;9.93;52.97
31911;BME280;18457;52.432;16.914;2023-04-28T07:54:42;100850.77;;;9.99;52.74
31911;BME280;18457;52.432;16.914;2023-04-28T07:57:14;100843.00;;;9.98;51.74
31911;BME280;18457;52.432;16.914;2023-04-28T07:59:46;100843.35;;;10.00;51.84
31911;BME280;18457;52.432;16.914;2023-04-28T08:02:17;100834.80;;;10.04;52.25
31911;BME280;18457;52.432;16.914;2023-04-28T08:04:50;100840.49;;;10.11;52.87
31911;BME280;18457;52.432;16.914;2023-04-28T08:07:22;100833.44;;;10.24;53.35
31911;BME280;18457;52.432;16.914;2023-04-28T08:09:54;100832.10;;;10.28;52.04
31911;BME280;18457;52.432;16.914;2023-04-28T08:12:26;100827.04;;;10.29;51.51
31911;BME280;18457;52.432;16.914;2023-04-28T08:14:58;100827.31;;;10.34;51.58
31911;BME280;18457;52.432;16.914;2023-04-28T08:17:30;100823.09;;;10.39;51.34
31911;BME280;18457;52.432;16.914;2023-04-28T08:20:02;100822.77;;;10.46;51.48
31911;BME280;18457;52.432;16.914;2023-04-28T08:22:35;100821.66;;;10.48;51.12
31911;BME280;18457;52.432;16.914;2023-04-28T08:25:08;100817.41;;;10.53;51.14
31911;BME280;18457;52.432;16.914;2023-04-28T08:27:40;100813.13;;;10.61;50.94
31911;BME280;18457;52.432;16.914;2023-04-28T08:30:13;100812.59;;;10.71;51.33
31911;BME280;18457;52.432;16.914;2023-04-28T08:32:45;100808.52;;;10.77;50.72
31911;BME280;18457;52.432;16.914;2023-04-28T08:35:17;100807.71;;;10.81;50.18
31911;BME280;18457;52.432;16.914;2023-04-28T08:37:50;100797.17;;;10.84;50.52
31911;BME280;18457;52.432;16.914;2023-04-28T08:40:22;100800.43;;;10.93;50.15
31911;BME280;18457;52.432;16.914;2023-04-28T08:42:56;100798.39;;;10.96;49.57
31911;BME280;18457;52.432;16.914;2023-04-28T08:45:30;100786.07;;;10.97;49.88
31911;BME280;18457;52.432;16.914;2023-04-28T08:48:17;100791.21;;;11.02;50.05
31911;BME280;18457;52.432;16.914;2023-04-28T08:50:52;100789.91;;;11.03;48.28
31911;BME280;18457;52.432;16.914;2023-04-28T08:53:26;100782.91;;;11.01;47.61
31911;BME280;18457;52.432;16.914;2023-04-28T08:55:58;100782.88;;;11.03;47.95
31911;BME280;18457;52.432;16.914;2023-04-28T08:58:32;100780.16;;;11.12;48.74
31911;BME280;18457;52.432;16.914;2023-04-28T09:01:05;100778.27;;;11.25;49.43
31911;BME280;18457;52.432;16.914;2023-04-28T09:03:38;100771.67;;;11.37;49.52
31911;BME280;18457;52.432;16.914;2023-04-28T09:06:09;100768.98;;;11.45;49.27
31911;BME280;18457;52.432;16.914;2023-04-28T09:08:41;100765.77;;;11.52;49.23
31911;BME280;18457;52.432;16.914;2023-04-28T09:11:13;100758.39;;;11.58;49.01
31911;BME280;18457;52.432;16.914;2023-04-28T09:13:45;100754.70;;;11.70;49.35
31911;BME280;18457;52.432;16.914;2023-04-28T09:16:17;100757.73;;;11.80;49.32
31911;BME280;18457;52.432;16.914;2023-04-28T09:18:57;100760.09;;;11.87;49.18
31911;BME280;18457;52.432;16.914;2023-04-28T09:21:31;100756.16;;;11.92;48.94
31911;BME280;18457;52.432;16.914;2023-04-28T09:24:03;100752.46;;;11.88;48.32
31911;BME280;18457;52.432;16.914;2023-04-28T09:26:48;100750.48;;;11.94;49.03
31911;BME280;18457;52.432;16.914;2023-04-28T09:29:24;100753.58;;;12.01;48.95
31911;BME280;18457;52.432;16.914;2023-04-28T09:32:13;100747.24;;;12.08;49.04
31911;BME280;18457;52.432;16.914;2023-04-28T09:34:46;100744.23;;;12.28;49.26
31911;BME280;18457;52.432;16.914;2023-04-28T09:37:19;100738.77;;;12.35;47.61
31911;BME280;18457;52.432;16.914;2023-04-28T09:39:53;100739.27;;;12.36;47.20
31911;BME280;18457;52.432;16.914;2023-04-28T09:42:36;100737.46;;;12.44;47.28
31911;BME280;18457;52.432;16.914;2023-04-28T09:45:10;100731.55;;;12.54;47.98
31911;BME280;18457;52.432;16.914;2023-04-28T09:47:43;100725.81;;;12.78;47.99
31911;BME280;18457;52.432;16.914;2023-04-28T09:50:17;100723.68;;;12.90;46.74
31911;BME280;18457;52.432;16.914;2023-04-28T09:52:56;100717.37;;;13.02;46.69
31911;BME280;18457;52.432;16.914;2023-04-28T09:55:30;100713.52;;;13.22;47.10
31911;BME280;18457;52.432;16.914;2023-04-28T09:58:06;100712.08;;;13.39;46.31
31911;BME280;18457;52.432;16.914;2023-04-28T10:00:39;100705.90;;;13.51;46.31
31911;BME280;18457;52.432;16.914;2023-04-28T10:03:11;100695.58;;;13.62;46.01
31911;BME280;18457;52.432;16.914;2023-04-28T10:05:45;100695.77;;;13.73;46.19
31911;BME280;18457;52.432;16.914;2023-04-28T10:08:18;100699.19;;;13.79;45.74
31911;BME280;18457;52.432;16.914;2023-04-28T10:10:51;100695.70;;;13.92;45.16
31911;BME280;18457;52.432;16.914;2023-04-28T10:13:24;100691.21;;;13.95;44.63
31911;BME280;18457;52.432;16.914;2023-04-28T10:15:57;100689.73;;;14.01;44.82
31911;BME280;18457;52.432;16.914;2023-04-28T10:18:29;100680.56;;;14.14;44.87
31911;BME280;18457;52.432;16.914;2023-04-28T10:21:06;100683.33;;;14.30;45.06
31911;BME280;18457;52.432;16.914;2023-04-28T10:23:50;100678.27;;;14.44;45.00
31911;BME280;18457;52.432;16.914;2023-04-28T10:29:26;100674.66;;;14.69;44.36
31911;BME280;18457;52.432;16.914;2023-04-28T10:32:15;100676.27;;;14.84;44.20
31911;BME280;18457;52.432;16.914;2023-04-28T10:34:47;100674.84;;;14.88;43.77
31911;BME280;18457;52.432;16.914;2023-04-28T10:37:19;100669.05;;;14.93;44.00
31911;BME280;18457;52.432;16.914;2023-04-28T10:42:58;100662.25;;;15.13;44.06
31911;BME280;18457;52.432;16.914;2023-04-28T10:49:05;100661.42;;;15.34;43.45
31911;BME280;18457;52.432;16.914;2023-04-28T10:51:37;100652.48;;;15.35;43.25
31911;BME280;18457;52.432;16.914;2023-04-28T10:54:13;100655.10;;;15.47;43.25
31911;BME280;18457;52.432;16.914;2023-04-28T10:57:15;100647.03;;;15.62;43.58
31911;BME280;18457;52.432;16.914;2023-04-28T10:59:51;100644.83;;;15.76;42.75
31911;BME280;18457;52.432;16.914;2023-04-28T11:02:44;100642.02;;;15.86;42.69
31911;BME280;18457;52.432;16.914;2023-04-28T11:05:19;100634.86;;;15.96;42.55
31911;BME280;18457;52.432;16.914;2023-04-28T11:11:19;100624.53;;;16.03;41.86
31911;BME280;18457;52.432;16.914;2023-04-28T11:13:52;100621.65;;;16.19;42.00
31911;BME280;18457;52.432;16.914;2023-04-28T11:16:25;100619.89;;;16.21;41.44
31911;BME280;18457;52.432;16.914;2023-04-28T11:18:59;100615.29;;;16.27;41.09
31911;BME280;18457;52.432;16.914;2023-04-28T11:21:34;100604.27;;;16.16;41.62
31911;BME280;18457;52.432;16.914;2023-04-28T11:24:10;100610.27;;;16.33;42.23
31911;BME280;18457;52.432;16.914;2023-04-28T11:26:42;100609.48;;;16.51;41.09
31911;BME280;18457;52.432;16.914;2023-04-28T11:29:15;100614.98;;;16.58;40.40
31911;BME280;18457;52.432;16.914;2023-04-28T11:31:51;100613.02;;;16.58;40.09
31911;BME280;18457;52.432;16.914;2023-04-28T11:34:24;100607.52;;;16.58;40.81
31911;BME280;18457;52.432;16.914;2023-04-28T11:36:56;100607.33;;;16.58;40.57
31911;BME280;18457;52.432;16.914;2023-04-28T11:39:29;100605.02;;;16.69;40.22
31911;BME280;18457;52.432;16.914;2023-04-28T11:42:08;100597.58;;;16.76;40.65
31911;BME280;18457;52.432;16.914;2023-04-28T11:44:40;100594.77;;;16.86;40.60
31911;BME280;18457;52.432;16.914;2023-04-28T11:47:12;100595.35;;;16.85;40.04
31911;BME280;18457;52.432;16.914;2023-04-28T11:49:44;100593.77;;;16.88;39.86
31911;BME280;18457;52.432;16.914;2023-04-28T11:52:17;100592.75;;;16.82;40.00
31911;BME280;18457;52.432;16.914;2023-04-28T11:54:54;100593.95;;;16.99;40.36
31911;BME280;18457;52.432;16.914;2023-04-28T11:57:27;100585.02;;;17.09;39.77
31911;BME280;18457;52.432;16.914;2023-04-28T12:02:58;100588.04;;;17.37;39.87
31911;BME280;18457;52.432;16.914;2023-04-28T12:05:44;100587.65;;;17.38;39.69
31911;BME280;18457;52.432;16.914;2023-04-28T12:08:28;100584.02;;;17.45;39.27
31911;BME280;18457;52.432;16.914;2023-04-28T12:11:10;100588.02;;;17.49;39.13
31911;BME280;18457;52.432;16.914;2023-04-28T12:13:42;100586.14;;;17.51;38.66
31911;BME280;18457;52.432;16.914;2023-04-28T12:16:14;100577.33;;;17.47;38.78
31911;BME280;18457;52.432;16.914;2023-04-28T12:19:07;100575.14;;;17.59;38.88
31911;BME280;18457;52.432;16.914;2023-04-28T12:21:41;100567.99;;;17.59;38.95
31911;BME280;18457;52.432;16.914;2023-04-28T12:24:20;100569.13;;;17.55;39.49
31911;BME280;18457;52.432;16.914;2023-04-28T12:26:53;100566.94;;;17.46;39.03
31911;BME280;18457;52.432;16.914;2023-04-28T12:29:38;100566.64;;;17.38;38.95
31911;BME280;18457;52.432;16.914;2023-04-28T12:32:12;100560.25;;;17.41;39.05
31911;BME280;18457;52.432;16.914;2023-04-28T12:34:46;100555.58;;;17.55;39.68
31911;BME280;18457;52.432;16.914;2023-04-28T12:37:20;100556.65;;;17.81;39.77
31911;BME280;18457;52.432;16.914;2023-04-28T12:39:52;100551.86;;;17.85;39.26
31911;BME280;18457;52.432;16.914;2023-04-28T12:42:24;100548.36;;;17.96;39.13
31911;BME280;18457;52.432;16.914;2023-04-28T12:44:56;100545.69;;;18.05;38.63
31911;BME280;18457;52.432;16.914;2023-04-28T12:47:28;100546.25;;;18.15;38.20
31911;BME280;18457;52.432;16.914;2023-04-28T12:50:00;100548.25;;;18.25;38.00
31911;BME280;18457;52.432;16.914;2023-04-28T12:52:32;100544.34;;;18.30;37.82
31911;BME280;18457;52.432;16.914;2023-04-28T12:55:06;100536.91;;;18.25;37.26
31911;BME280;18457;52.432;16.914;2023-04-28T13:00:12;100532.86;;;18.19;38.25
31911;BME280;18457;52.432;16.914;2023-04-28T13:02:46;100527.45;;;18.17;37.79
31911;BME280;18457;52.432;16.914;2023-04-28T13:05:18;100529.67;;;18.17;38.42
31911;BME280;18457;52.432;16.914;2023-04-28T13:07:50;100521.56;;;18.32;40.92
31911;BME280;18457;52.432;16.914;2023-04-28T13:10:23;100519.02;;;18.38;38.24
31911;BME280;18457;52.432;16.914;2023-04-28T13:12:56;100516.11;;;18.38;38.03
31911;BME280;18457;52.432;16.914;2023-04-28T13:15:28;100515.23;;;18.41;37.63
31911;BME280;18457;52.432;16.914;2023-04-28T13:18:00;100511.16;;;18.38;36.99
31911;BME280;18457;52.432;16.914;2023-04-28T13:20:31;100508.08;;;18.35;37.37
31911;BME280;18457;52.432;16.914;2023-04-28T13:23:03;100503.95;;;18.36;37.62
31911;BME280;18457;52.432;16.914;2023-04-28T13:25:36;100499.29;;;18.45;36.96
31911;BME280;18457;52.432;16.914;2023-04-28T13:28:08;100491.95;;;18.39;37.87
31911;BME280;18457;52.432;16.914;2023-04-28T13:30:40;100491.05;;;18.52;38.03
31911;BME280;18457;52.432;16.914;2023-04-28T13:33:12;100486.16;;;18.64;37.76
31911;BME280;18457;52.432;16.914;2023-04-28T13:35:44;100479.09;;;18.69;37.22